Aérodrome :
LOGIN :

S'inscrire | Disclaimer

   EN    FR    IT 

 










Légende :    VFR   VFR Marginal   IFR   IFR Intensif   IFR Très Intensif
Visi : 
Plafond : 
>= 8 km
>= 3000ft
5 à 8 km
1000 à 3000 ft
1500m à 5 km
500 à 1000 ft
800 à 1500m
200 à 500 ft
< 800m
< 200 ft
Symboles :   Orages  Brouillard  Fortes neiges  Fortes précipitations  Vent > 20 kt
SIGMETs :   Divers  Orages  Givrage  Turbulence  Onde Orograph.  Cendres Volcan.






- Altitude de l'aérodrome : 25 ft
- Code IATA : QCY


EGXC - RAF Coningsby

DERNIER METAR :
  • 230950Z 24019KT 9999 BKN022 14/09 Q1009 BECMG BKN025 RMK WHT BECMG BLU

METARs EXPIRÉS :
  • 230920Z 25017KT 9999 BKN020 14/09 Q1009 NOSIG RMK WHT WHT
  • 230850Z 25020KT 9999 BKN020 14/09 Q1009 NOSIG RMK WHT WHT
  • 230820Z 25019KT 9999 BKN020 14/09 Q1009 NOSIG RMK WHT WHT
  • 230750Z 25019G30KT 9999 BKN020 13/09 Q1008 NOSIG RMK WHT WHT
  • 230650Z 25017KT 9999 BKN015 12/09 Q1008 RMK WHT
  • 230550Z 24018KT 9999 BKN015 12/10 Q1007 RMK WHT

TAF TAF EGXC
Valide du 23 à 09h jusqu'au 24 à 03h UTC


230756Z 2309/2403 25016G26KT 9999 BKN020
BECMG 2309/2312 BKN025
PROB30
TEMPO 2312/2318 SCT024
BECMG 2315/2318 24012KT
BECMG 2321/2324 BKN012



MET'MAP, la Météo Aéronautique d'un coup d'oeil ! - Copyright ORBIFLY Décembre 2007 - Disclaimer

ORBIFLY MET'MAP TEAM :

Programmation & Développement : Alexandra Zaïnal
Sur une idée originale de : Baudouin d'Aumeries
Soutien technique & logistique : Manuel Goepfert
Assistance : Marc-Olivier Méhu




SOURCES & CREDITS :

   NOAA